• Join FlightAware (Why Join?)
  • Login
  • US Flag 
09:13PM EST


 

Airport Tracker/Info


-or-


 

Live Flight TrackerFlight Track Log ✈ USC491 ✈ 30-Jan-2014 ✈ KADS - KHOU

Flight Track Log - Related Links

Times and Time Zones

All times are in EST time to prevent confusion due to time zone crossing. See the USC491 flight status page for this flight to view local times or setup timezone preferences in your user account.

Time Position Orientation Groundspeed Altitude Reporting Facility
EST Latitude Longitude Course Direction KTS MPH feet Rate Location/Type
07:36AM 32.9667 -96.8333 180° South 86 99 1,200  Level Dallas / Fort Worth TRACON
07:37AM 32.9500 -96.8333 180° South 68 78 2,000 1,020 Climbing Dallas / Fort Worth TRACON
07:38AM 32.9333 -96.8167 140° Southeast 72 83 2,900 420 Climbing Dallas / Fort Worth TRACON
07:39AM 32.9000 -96.8333 203° Southwest 103 119 2,900  Level Dallas / Fort Worth TRACON
07:40AM 32.8833 -96.8500 220° Southwest 110 127 3,000 480 Climbing Dallas / Fort Worth TRACON
07:41AM 32.8500 -96.8667 203° Southwest 96 110 3,900 420 Climbing Dallas / Fort Worth TRACON
07:42AM 32.8167 -96.8667 180° South 126 145 3,900  Level Dallas / Fort Worth TRACON
07:43AM 32.7833 -96.8833 203° Southwest 127 146 3,900  Level Dallas / Fort Worth TRACON
07:44AM 32.7500 -96.8833 180° South 131 151 3,900  Level Dallas / Fort Worth TRACON
07:45AM 32.7167 -96.9000 203° Southwest 128 147 3,900  Level Dallas / Fort Worth TRACON
07:46AM 32.6833 -96.9000 180° South 128 147 3,900 480 Level Dallas / Fort Worth TRACON
07:47AM 32.6500 -96.9000 180° South 92 106 4,900 900 Climbing Dallas / Fort Worth TRACON
07:48AM 32.6333 -96.9167 220° Southwest 89 102 5,900 840 Climbing Dallas / Fort Worth TRACON
07:49AM 32.6000 -96.9333 203° Southwest 95 109 6,700 840 Climbing Dallas / Fort Worth TRACON
07:50AM 32.5667 -96.9167 157° South 109 125 7,600 840 Climbing Dallas / Fort Worth TRACON
07:51AM 32.5500 -96.9167 180° South 105 121 8,300 660 Climbing Dallas / Fort Worth TRACON
07:52AM 32.5167 -96.9000 157° South 108 124 8,900 240 Climbing Dallas / Fort Worth TRACON
07:53AM 32.4775 -96.8897 168° South 147 169 8,900  Level Fort Worth Center
07:54AM 32.4325 -96.8831 173° South 152 175 8,900  Level Fort Worth Center
07:55AM 32.3903 -96.8792 176° South 151 174 8,900  Level Fort Worth Center
07:56AM 32.3475 -96.8747 175° South 152 175 8,900  Level Fort Worth Center
07:57AM 32.3036 -96.8675 172° South 158 182 8,900 -60 Level Fort Worth Center
07:58AM 32.2606 -96.8544 166° South 160 184 8,800  Descending Fort Worth Center
07:59AM 32.2197 -96.8436 167° South 159 183 9,000 60 Climbing Fort Worth Center
08:00AM 32.1750 -96.8311 167° South 161 185 9,000  Level Fort Worth Center
08:01AM 32.1314 -96.8150 163° South 161 185 9,000  Level Fort Worth Center
08:02AM 32.0875 -96.7997 164° South 163 188 9,000  Level Fort Worth Center
08:03AM 32.0414 -96.7808 161° South 168 193 9,000  Level Fort Worth Center
08:04AM 31.9975 -96.7631 161° South 167 192 9,000  Level Fort Worth Center
08:05AM 31.9525 -96.7450 161° South 168 193 9,000  Level Fort Worth Center
08:06AM 31.9081 -96.7264 160° South 168 193 9,000  Level Fort Worth Center
08:07AM 31.8708 -96.7122 162° South 164 189 9,000  Level Houston Center
08:08AM 31.8253 -96.6964 164° South 166 191 9,000  Level Houston Center
08:09AM 31.7803 -96.6833 166° South 165 190 9,000  Level Houston Center
08:10AM 31.7353 -96.6731 169° South 164 189 9,000  Level Houston Center
08:11AM 31.6906 -96.6614 167° South 161 185 9,000  Level Houston Center
08:12AM 31.6453 -96.6503 168° South 163 188 9,000  Level Houston Center
08:13AM 31.6008 -96.6397 169° South 162 186 9,000  Level Houston Center
08:14AM 31.5561 -96.6281 167° South 162 186 9,000  Level Houston Center
08:15AM 31.5114 -96.6197 171° South 162 186 9,000  Level Houston Center
08:16AM 31.4661 -96.6156 176° South 161 185 9,000 -60 Level Houston Center
08:17AM 31.4211 -96.6119 176° South 161 185 8,900 -60 Descending Houston Center
08:18AM 31.3761 -96.6072 175° South 160 184 8,900  Level Houston Center
08:19AM 31.3303 -96.6000 172° South 162 186 8,900  Level Houston Center
08:20AM 31.2856 -96.5892 168° South 162 186 8,900  Level Houston Center
08:21AM 31.2403 -96.5728 163° South 166 191 8,900  Level Houston Center
08:22AM 31.1956 -96.5564 163° South 166 191 8,900  Level Houston Center
08:23AM 31.1511 -96.5411 164° South 164 189 8,900  Level Houston Center
08:24AM 31.1219 -96.5308 163° South 166 191 8,900  Level Houston Center
08:24AM 31.1061 -96.5256 164° South 165 190 8,900 60 Level Houston Center
08:25AM 31.0661 -96.5150 167° South 166 191 9,000 60 Climbing Houston Center
08:25AM 31.0533 -96.5097 161° South 166 191 9,000 -120 Level Houston Center
08:26AM 31.0211 -96.5006 166° South 166 191 8,900 -120 Descending Houston Center
08:26AM 31.0086 -96.4942 156° South 166 191 8,900  Level Houston Center
08:27AM 30.9753 -96.4814 162° South 169 194 8,900  Level Houston Center
08:27AM 30.9622 -96.4781 168° South 169 194 8,900  Level Houston Center
08:28AM 30.9239 -96.4675 167° South 167 192 8,900  Level Houston Center
08:28AM 30.9169 -96.4642 158° South 168 193 8,900 60 Level Houston Center
08:29AM 30.8808 -96.4553 168° South 165 190 9,000  Climbing Houston Center
08:29AM 30.8731 -96.4514 157° South 162 186 8,900 -120 Descending Houston Center
08:30AM 30.8422 -96.4425 166° South 164 189 8,900 60 Level Houston Center
08:30AM 30.8272 -96.4392 169° South 166 191 9,000 60 Climbing Houston Center
08:31AM 30.7931 -96.4308 168° South 161 185 9,000 -120 Level Houston Center
08:31AM 30.7836 -96.4278 164° South 162 186 8,900  Descending Houston Center
08:32AM 30.7481 -96.4189 168° South 161 185 9,000 60 Climbing Houston Center
08:32AM 30.7392 -96.4172 171° South 161 185 9,000 -120 Level Houston Center
08:33AM 30.7014 -96.4144 176° South 159 183 8,900 -120 Descending Houston Center
08:33AM 30.6956 -96.4128 166° South 156 180 8,900  Level Houston Center
08:34AM 30.6592 -96.4117 178° South 157 181 8,900  Level Houston Center
08:34AM 30.6508 -96.4106 173° South 158 182 8,900  Level Houston Center
08:35AM 30.6214 -96.4111 181° South 155 178 8,900  Level Houston Center
08:35AM 30.6067 -96.4097 175° South 158 182 8,900  Level Houston Center
08:36AM 30.5686 -96.4072 177° South 155 178 8,900  Level Houston Center
08:36AM 30.5639 -96.4067 174° South 154 177 8,900  Level Houston Center
08:37AM 30.5300 -96.3969 166° South 161 185 8,900  Level Houston Center
08:37AM 30.5206 -96.3917 154° Southeast 163 188 8,900  Level Houston Center
08:38AM 30.4867 -96.3800 163° South 163 188 8,900  Level Houston Center
08:38AM 30.4775 -96.3742 151° Southeast 162 186 8,900 -480 Level Houston Center
08:39AM 30.4475 -96.3625 161° South 165 190 8,500 -720 Descending Houston Center
08:39AM 30.4317 -96.3544 156° South 169 194 8,200 -780 Descending Houston Center
08:40AM 30.3847 -96.3406 166° South 184 212 7,600 -600 Descending Houston Center
08:41AM 30.3817 -96.3378 142° Southeast 181 208 7,600 -780 Level Houston Center
08:41AM 30.3411 -96.3186 158° South 192 221 6,900 -720 Descending Houston Center
08:42AM 30.3325 -96.3128 150° Southeast 189 217 6,900 -600 Level Houston Center
08:42AM 30.2908 -96.2953 160° South 181 208 6,300 -720 Descending Houston Center
08:43AM 30.2756 -96.2903 164° South 184 212 6,200 -720 Descending Houston Center
08:43AM 30.2414 -96.2814 167° South 186 214 5,600 -840 Descending Houston Center
08:44AM 30.2256 -96.2772 167° South 183 211 5,400 -720 Descending Houston Center
08:44AM 30.1919 -96.2653 163° South 176 203 4,900 -420 Descending Houston Center
08:45AM 30.1772 -96.2586 159° South 180 207 5,000  Climbing Houston Center
08:45AM 30.1522 -96.2431 152° Southeast 166 191 4,900  Descending Houston Center
08:46AM 30.1364 -96.2339 153° Southeast 170 196 5,000  Climbing Houston Center
08:46AM 30.1128 -96.2233 159° South 159 183 4,900  Descending Houston Center
08:47AM 30.0964 -96.2131 152° Southeast 161 185 5,000  Climbing Houston Center
08:47AM 30.0733 -96.2036 160° South 158 182 4,900  Descending Houston Center
08:48AM 30.0547 -96.1967 162° South 159 183 5,000 60 Climbing Houston Center
08:49AM 30.0125 -96.1853 167° South 156 180 5,000 -60 Level Houston Center
08:49AM 29.9744 -96.1761 168° South 157 181 4,900  Descending Houston Center
08:50AM 29.9697 -96.1744 163° South 157 181 5,000  Climbing Houston Center
08:50AM 29.9358 -96.1661 168° South 158 182 4,900  Descending Houston Center
08:51AM 29.9264 -96.1614 157° South 160 184 5,000  Climbing Houston Center
08:51AM 29.8978 -96.1392 146° Southeast 176 203 4,900  Descending Houston Center
08:52AM 29.8897 -96.1289 132° Southeast 168 193 5,000  Climbing Houston Center
08:52AM 29.8608 -96.0975 137° Southeast 170 196 4,900  Descending Houston Center
08:53AM 29.8492 -96.0833 134° Southeast 170 196 5,000  Climbing Houston Center
08:53AM 29.8328 -96.0647 135° Southeast 168 193 4,900  Descending Houston Center
08:54AM 29.8164 -96.0456 135° Southeast 167 192 5,000  Climbing Houston Center
08:54AM 29.7975 -96.0228 134° Southeast 171 197 4,900  Descending Houston Center
08:55AM 29.7853 -96.0061 130° Southeast 167 192 5,000  Climbing Houston Center
08:55AM 29.7625 -95.9811 136° Southeast 167 192 4,900  Descending Houston Center
08:56AM 29.7528 -95.9669 128° Southeast 168 193 5,000  Climbing Houston Center
08:56AM 29.7342 -95.9436 133° Southeast 169 194 4,900 -120 Descending Houston Center
08:57AM 29.7214 -95.9261 130° Southeast 169 194 4,900 -420 Level Houston Center
08:57AM 29.7192 -95.8922 94° East 194 223 4,500 -600 Descending Houston Center
08:58AM 29.7206 -95.8656 87° East 184 212 4,300 -540 Descending Houston Center
08:58AM 29.7203 -95.8344 91° East 185 213 4,000 -240 Descending Houston Center
08:59AM 29.7194 -95.8081 92° East 183 211 4,100 -120 Climbing Houston Center
08:59AM 29.7186 -95.7672 91° East 184 212 3,900 -120 Descending Houston Center
09:00AM 29.7192 -95.7492 88° East 183 211 4,000 -120 Climbing Houston Center
09:00AM 29.7183 -95.7169 92° East 185 213 3,800 -420 Descending Houston Center
09:01AM 29.7164 -95.6786 93° East 184 212 3,600 -540 Descending Houston Center
09:01AM 29.7169 -95.6544 88° East 182 209 3,300 -540 Descending Houston Center
09:02AM 29.7186 -95.6200 87° East 184 212 3,100 -420 Descending Houston Center
09:02AM 29.7242 -95.5958 75° East 187 215 2,900 -240 Descending Houston Center
09:03AM 29.7236 -95.5636 91° East 185 213 2,900 -300 Level Houston Center
09:04AM 29.7267 -95.5306 84° East 190 219 2,600 -540 Descending Houston Center
09:05AM 29.7233 -95.4686 94° East 182 209 2,100 -360 Descending Houston Center
09:06AM 29.7178 -95.4092 96° East 168 193 1,900 -180 Descending Houston Center
09:07AM 29.7094 -95.3619 101° East 158 182 1,800 -420 Descending Houston Center
09:08AM 29.6831 -95.3267 131° Southeast 143 165 1,100 -780 Descending Houston Center
09:09AM 29.6594 -95.2983 134° Southeast 104 120 300 -840 Descending Houston Center
09:11AM 29.6454 -95.2789 99° East  Level Estimated